createdAt,value
2022-11-20T00:01:23.313Z,3.60
2022-11-20T00:03:52.492Z,3.50
2022-11-20T00:06:21.578Z,3.60
2022-11-20T00:08:49.955Z,3.60
2022-11-20T00:11:21.751Z,3.60
2022-11-20T00:13:52.421Z,3.60
2022-11-20T00:16:22.477Z,3.60
2022-11-20T00:18:50.676Z,3.50
2022-11-20T00:21:20.342Z,3.50
2022-11-20T00:23:50.678Z,3.50
2022-11-20T00:26:20.034Z,3.40
2022-11-20T00:28:54.564Z,3.40
2022-11-20T00:31:22.486Z,3.40
2022-11-20T00:33:50.464Z,3.40
2022-11-20T00:36:20.012Z,3.40
2022-11-20T00:38:48.608Z,3.40
2022-11-20T00:41:18.367Z,3.50
2022-11-20T00:43:46.341Z,3.50
2022-11-20T00:46:17.474Z,3.50
2022-11-20T00:48:46.326Z,3.50
2022-11-20T00:51:15.958Z,3.50
2022-11-20T00:53:44.123Z,3.50
2022-11-20T00:56:13.591Z,3.50
2022-11-20T00:58:43.336Z,3.50
2022-11-20T05:01:07.061Z,3.30
2022-11-20T05:03:41.052Z,3.30
2022-11-20T05:06:11.039Z,3.30
2022-11-20T05:08:39.056Z,3.20
2022-11-20T05:11:08.867Z,3.20
2022-11-20T05:13:36.836Z,3.20
2022-11-20T05:16:08.056Z,3.20
2022-11-20T05:18:36.902Z,3.20
2022-11-20T05:21:05.029Z,3.20
2022-11-20T05:23:34.027Z,3.20
2022-11-20T05:26:02.884Z,3.20
2022-11-20T05:28:32.424Z,3.20
2022-11-20T05:31:08.675Z,3.30
2022-11-20T05:33:37.173Z,3.20
2022-11-20T05:36:06.074Z,3.30
2022-11-20T05:38:34.184Z,3.30
2022-11-20T05:41:06.509Z,3.30
2022-11-20T05:46:03.564Z,3.30
2022-11-20T05:48:33.378Z,3.40
2022-11-20T05:51:01.700Z,3.40
2022-11-20T05:53:29.886Z,3.40
2022-11-20T05:56:01.508Z,3.40
2022-11-20T05:58:29.981Z,3.40
2022-11-20T06:01:06.234Z,3.50
2022-11-20T06:03:35.419Z,3.50
2022-11-20T06:06:03.693Z,3.40
2022-11-20T06:08:32.013Z,3.50
2022-11-20T06:11:00.360Z,3.50
2022-11-20T06:13:28.104Z,3.50
2022-11-20T06:15:56.265Z,3.50
2022-11-20T06:18:24.076Z,3.50
2022-11-20T06:21:01.640Z,3.50
2022-11-20T06:23:31.171Z,3.50
2022-11-20T06:25:59.178Z,3.50
2022-11-20T06:28:26.963Z,3.40
2022-11-20T06:30:55.553Z,3.50
2022-11-20T06:33:23.351Z,3.50
2022-11-20T06:35:55.482Z,3.40
2022-11-20T06:38:27.991Z,3.40
2022-11-20T06:40:56.571Z,3.30
2022-11-20T06:43:25.151Z,3.30
2022-11-20T06:45:54.866Z,3.30
2022-11-20T06:48:22.957Z,3.30
2022-11-20T06:50:50.792Z,3.30
2022-11-20T06:53:18.802Z,3.30
2022-11-20T06:55:49.058Z,3.30
2022-11-20T06:58:18.400Z,3.20
2022-11-20T07:00:46.698Z,3.20
2022-11-20T07:03:15.008Z,3.20
2022-11-20T07:05:42.901Z,3.20
2022-11-20T07:08:10.730Z,3.20
2022-11-20T07:10:38.590Z,3.20
2022-11-20T07:13:07.946Z,3.20
2022-11-20T07:15:35.949Z,3.20
2022-11-20T07:18:04.339Z,3.30
2022-11-20T07:20:32.147Z,3.30
2022-11-20T07:23:00.307Z,3.30
2022-11-20T07:25:29.865Z,3.40
2022-11-20T07:27:59.360Z,3.40
2022-11-20T07:30:28.783Z,3.40
2022-11-20T07:32:57.610Z,3.50
2022-11-20T07:35:25.695Z,3.50
2022-11-20T07:37:53.721Z,3.50
2022-11-20T07:40:21.891Z,3.60
2022-11-20T07:42:50.825Z,3.60
2022-11-20T07:45:18.758Z,3.60
2022-11-20T07:47:48.050Z,3.70
2022-11-20T07:50:16.623Z,3.70
2022-11-20T07:52:44.625Z,3.70
2022-11-20T07:55:13.071Z,3.70
2022-11-20T07:57:40.962Z,3.70
2022-11-20T08:00:11.695Z,3.80
2022-11-20T08:02:40.884Z,3.80
2022-11-20T08:05:11.185Z,3.80
2022-11-20T08:07:39.915Z,3.80
2022-11-20T08:10:09.301Z,3.90
2022-11-20T08:12:54.662Z,3.90
2022-11-20T08:15:22.675Z,4.00
2022-11-20T08:18:15.364Z,4.00
2022-11-20T08:20:40.357Z,4.00
2022-11-20T08:23:09.608Z,4.00
2022-11-20T08:25:39.443Z,4.00
2022-11-20T08:28:19.943Z,4.00
2022-11-20T08:30:49.137Z,4.00
2022-11-20T08:33:18.236Z,5.80
2022-11-20T08:35:47.623Z,4.00
2022-11-20T08:38:15.500Z,4.10
2022-11-20T08:41:03.323Z,4.20
2022-11-20T08:43:31.151Z,4.20
2022-11-20T08:45:59.140Z,4.10
2022-11-20T08:48:26.915Z,4.20
2022-11-20T08:50:59.175Z,4.20
2022-11-20T08:53:27.432Z,4.20
2022-11-20T08:55:55.701Z,4.20
2022-11-20T08:58:23.484Z,4.20
2022-11-20T09:00:51.341Z,4.20
2022-11-20T09:05:47.414Z,4.30
2022-11-20T09:08:16.587Z,4.30
2022-11-20T09:10:44.348Z,4.30
2022-11-20T09:13:12.143Z,4.30
2022-11-20T09:15:39.900Z,4.30
2022-11-20T09:18:07.933Z,4.40
2022-11-20T09:20:36.387Z,4.40
2022-11-20T09:23:04.431Z,4.30
2022-11-20T09:25:33.671Z,4.40
2022-11-20T09:28:02.296Z,4.40
2022-11-20T09:30:30.322Z,4.40
2022-11-20T09:32:58.102Z,4.50
2022-11-20T09:35:25.991Z,4.50
2022-11-20T09:37:53.834Z,4.60
2022-11-20T09:40:24.225Z,4.60
2022-11-20T09:42:58.979Z,4.80
2022-11-20T09:45:40.026Z,4.90
2022-11-20T09:48:35.052Z,4.90
2022-11-20T09:51:13.134Z,4.80
2022-11-20T09:53:54.000Z,4.80
2022-11-20T09:56:23.024Z,4.90
2022-11-20T09:58:54.877Z,4.90
2022-11-20T10:01:28.178Z,5.00
2022-11-20T10:04:00.993Z,5.20
2022-11-20T10:06:33.170Z,5.20
2022-11-20T10:09:08.293Z,5.20
2022-11-20T10:11:46.179Z,5.30
2022-11-20T10:14:28.280Z,5.30
2022-11-20T10:17:05.184Z,5.30
2022-11-20T10:19:49.440Z,5.40
2022-11-20T10:22:33.072Z,5.40
2022-11-20T10:25:13.674Z,5.40
2022-11-20T10:28:17.230Z,5.60
2022-11-20T10:30:50.279Z,5.50
2022-11-20T10:36:29.492Z,5.60
2022-11-20T10:41:35.877Z,5.40
2022-11-20T10:44:11.739Z,5.20
2022-11-20T10:46:45.240Z,5.00
2022-11-20T10:49:16.473Z,5.00
2022-11-20T10:51:59.571Z,4.90
2022-11-20T10:54:38.660Z,5.00
2022-11-20T10:57:15.349Z,5.00
2022-11-20T10:59:59.742Z,5.10
2022-11-20T11:02:36.090Z,5.20
2022-11-20T11:05:14.696Z,5.20
2022-11-20T11:07:43.408Z,5.20
2022-11-20T11:10:18.461Z,5.30
2022-11-20T11:12:48.404Z,5.40
2022-11-20T11:15:28.492Z,5.50
2022-11-20T11:17:58.158Z,5.50
2022-11-20T11:20:27.489Z,5.50
2022-11-20T11:22:57.016Z,5.40
2022-11-20T11:25:31.039Z,5.50
2022-11-20T11:28:01.095Z,5.50
2022-11-20T11:30:30.956Z,5.50
2022-11-20T11:33:08.665Z,5.50
2022-11-20T11:35:49.951Z,5.50
2022-11-20T11:38:23.659Z,5.60
2022-11-20T11:40:51.823Z,5.50
2022-11-20T11:43:40.885Z,5.50
2022-11-20T11:46:33.590Z,5.50
2022-11-20T11:49:14.450Z,5.60
2022-11-20T11:51:54.459Z,5.70
2022-11-20T11:54:26.684Z,5.70
2022-11-20T11:56:55.733Z,5.80
2022-11-20T11:59:30.823Z,5.90
2022-11-20T12:02:04.894Z,5.90
2022-11-20T12:04:45.936Z,6.00
2022-11-20T12:07:46.128Z,6.10
2022-11-20T12:10:14.904Z,6.20
2022-11-20T12:12:46.812Z,6.30
2022-11-20T12:15:23.872Z,6.40
2022-11-20T12:17:51.633Z,6.60
2022-11-20T12:20:23.622Z,6.70
2022-11-20T12:22:57.832Z,6.70
2022-11-20T12:25:29.432Z,6.70
2022-11-20T12:28:26.398Z,6.70
2022-11-20T12:31:10.121Z,6.70
2022-11-20T12:34:00.470Z,6.70
2022-11-20T12:36:39.238Z,6.70
2022-11-20T12:39:24.364Z,6.70
2022-11-20T12:42:23.897Z,6.70
2022-11-20T12:45:30.109Z,6.60
2022-11-20T12:48:19.034Z,6.60
2022-11-20T12:51:14.019Z,6.60
2022-11-20T12:53:52.587Z,6.60
2022-11-20T12:56:32.341Z,6.60
2022-11-20T12:59:10.152Z,6.70
2022-11-20T13:01:45.096Z,6.70
2022-11-20T13:04:25.973Z,6.70
2022-11-20T13:06:54.132Z,6.70
2022-11-20T13:09:25.167Z,6.70
2022-11-20T13:11:58.605Z,6.70
2022-11-20T13:14:33.516Z,6.70
2022-11-20T13:17:07.252Z,6.60
2022-11-20T13:19:35.641Z,6.60
2022-11-20T13:22:03.609Z,6.60
2022-11-20T13:24:34.207Z,6.60
2022-11-20T13:27:04.255Z,6.60
2022-11-20T13:29:32.966Z,6.60
2022-11-20T13:32:08.984Z,6.60
2022-11-20T13:34:37.877Z,6.50
2022-11-20T13:37:05.761Z,6.50
2022-11-20T13:39:37.070Z,6.50
2022-11-20T13:42:25.388Z,6.50
2022-11-20T13:44:56.354Z,6.50
2022-11-20T13:47:26.839Z,6.50
2022-11-20T13:49:56.635Z,6.50
2022-11-20T13:52:41.092Z,6.50
2022-11-20T13:55:20.630Z,6.50
2022-11-20T13:58:15.197Z,6.40
2022-11-20T14:00:47.872Z,6.50
2022-11-20T14:03:37.850Z,6.40
2022-11-20T14:06:15.906Z,6.40
2022-11-20T14:08:47.814Z,6.40
2022-11-20T14:11:19.286Z,6.40
2022-11-20T14:14:02.732Z,6.40
2022-11-20T14:16:32.819Z,6.40
2022-11-20T14:19:25.536Z,6.40
2022-11-20T14:21:55.374Z,6.40
2022-11-20T14:24:26.207Z,6.40
2022-11-20T14:26:55.453Z,6.40
2022-11-20T14:29:28.790Z,6.40
2022-11-20T14:31:58.674Z,6.40
2022-11-20T14:34:29.652Z,6.50
2022-11-20T14:37:00.889Z,6.50
2022-11-20T14:39:32.668Z,6.50
2022-11-20T14:42:02.449Z,6.50
2022-11-20T14:44:33.473Z,6.40
2022-11-20T14:47:04.438Z,6.40
2022-11-20T14:49:36.747Z,6.40
2022-11-20T14:52:12.834Z,6.50
2022-11-20T14:57:25.598Z,6.50
2022-11-20T14:59:53.654Z,6.50
2022-11-20T15:02:21.487Z,6.50
2022-11-20T15:04:50.110Z,6.40
2022-11-20T15:07:29.133Z,6.40
2022-11-20T15:10:07.608Z,6.40
2022-11-20T15:12:40.230Z,6.40
2022-11-20T15:15:12.736Z,6.40
2022-11-20T15:17:42.826Z,6.40
2022-11-20T15:20:15.395Z,6.40
2022-11-20T15:22:43.351Z,6.40
2022-11-20T15:25:15.680Z,6.40
2022-11-20T15:27:45.387Z,6.50
2022-11-20T15:30:17.892Z,6.50
2022-11-20T15:32:46.986Z,6.50
2022-11-20T15:35:15.654Z,6.50
2022-11-20T15:37:44.000Z,6.50
2022-11-20T15:40:12.660Z,6.60
2022-11-20T15:43:00.453Z,6.60
2022-11-20T15:45:32.767Z,6.50
2022-11-20T15:48:01.466Z,6.50
2022-11-20T15:50:36.282Z,6.60
2022-11-20T15:53:06.380Z,6.60
2022-11-20T15:55:34.649Z,6.60
2022-11-20T15:58:02.737Z,6.60
2022-11-20T16:00:32.198Z,6.60
2022-11-20T16:03:00.019Z,6.60
2022-11-20T16:05:30.341Z,6.60
2022-11-20T16:07:58.476Z,6.60
2022-11-20T16:10:26.991Z,6.60
2022-11-20T16:13:12.571Z,6.60
2022-11-20T16:15:47.767Z,6.60
2022-11-20T16:18:17.394Z,6.60
2022-11-20T16:20:45.953Z,6.70
2022-11-20T16:23:13.881Z,6.70
2022-11-20T16:25:41.752Z,6.60
2022-11-20T16:28:11.582Z,6.60
2022-11-20T16:30:44.215Z,6.60
2022-11-20T16:33:13.676Z,6.60
2022-11-20T16:35:41.760Z,6.60
2022-11-20T16:38:09.497Z,6.60
2022-11-20T16:40:37.637Z,6.60
2022-11-20T16:43:11.336Z,6.60
2022-11-20T16:45:44.868Z,6.60
2022-11-20T16:48:17.416Z,6.50
2022-11-20T16:50:50.366Z,6.60
2022-11-20T16:53:18.791Z,6.60
2022-11-20T16:55:46.892Z,6.50
2022-11-20T16:58:14.822Z,6.60
2022-11-20T17:00:49.992Z,6.60
2022-11-20T17:03:20.795Z,6.50
2022-11-20T17:05:48.509Z,6.50
2022-11-20T17:08:16.291Z,6.60
2022-11-20T17:10:44.339Z,6.60
2022-11-20T17:13:12.130Z,6.60
2022-11-20T17:15:39.918Z,6.60
2022-11-20T17:18:09.082Z,6.60
2022-11-20T17:20:36.806Z,6.60
2022-11-20T17:23:04.535Z,6.70
2022-11-20T17:25:34.433Z,6.70
2022-11-20T17:28:02.276Z,6.70
2022-11-20T17:30:30.078Z,6.70
2022-11-20T17:32:57.801Z,6.70
2022-11-20T17:35:26.894Z,6.70
2022-11-20T17:37:54.656Z,6.70
2022-11-20T17:40:27.135Z,6.70
2022-11-20T17:42:55.716Z,6.70
2022-11-20T17:45:23.421Z,6.70
2022-11-20T17:47:51.178Z,6.70
2022-11-20T17:50:18.886Z,6.80
2022-11-20T17:52:48.153Z,6.80
2022-11-20T17:55:16.316Z,6.80
2022-11-20T17:57:56.992Z,6.80
2022-11-20T18:00:26.923Z,6.80
2022-11-20T18:02:55.181Z,6.80
2022-11-20T18:05:23.098Z,6.80
2022-11-20T18:07:55.051Z,6.80
2022-11-20T18:10:23.015Z,6.90
2022-11-20T18:12:50.851Z,6.90
2022-11-20T18:15:18.771Z,6.80
2022-11-20T18:17:46.496Z,6.80
2022-11-20T18:20:28.698Z,6.90
2022-11-20T18:23:00.021Z,6.90
2022-11-20T18:25:27.815Z,8.80
2022-11-20T18:27:56.323Z,6.90
2022-11-20T18:30:24.581Z,6.90
2022-11-20T18:32:52.290Z,6.80
2022-11-20T18:35:20.129Z,6.80
2022-11-20T18:37:47.920Z,6.90
2022-11-20T18:40:17.045Z,6.90
2022-11-20T18:43:02.375Z,6.90
2022-11-20T18:45:30.313Z,6.90
2022-11-20T18:47:58.287Z,7.00
2022-11-20T18:50:26.123Z,7.00
2022-11-20T18:52:53.882Z,7.00
2022-11-20T18:55:24.987Z,7.00
2022-11-20T18:57:53.927Z,7.00
2022-11-20T19:00:22.160Z,7.00
2022-11-20T19:02:53.367Z,7.00
2022-11-20T19:05:21.278Z,7.00
2022-11-20T19:07:49.119Z,7.00
2022-11-20T19:10:20.151Z,7.00
2022-11-20T19:12:49.266Z,7.00
2022-11-20T19:15:17.204Z,7.00
2022-11-20T19:17:44.925Z,7.00
2022-11-20T19:20:12.999Z,7.00
2022-11-20T19:22:40.729Z,7.00
2022-11-20T19:25:09.358Z,7.00
2022-11-20T19:27:37.104Z,6.90
2022-11-20T19:30:07.011Z,6.90
2022-11-20T19:32:35.310Z,6.90
2022-11-20T19:35:03.527Z,6.90
2022-11-20T19:37:34.219Z,6.80
2022-11-20T19:40:04.212Z,6.70
2022-11-20T19:42:32.021Z,6.70
2022-11-20T19:44:59.873Z,6.70
2022-11-20T19:47:52.756Z,6.80
2022-11-20T19:50:16.980Z,6.80
2022-11-20T19:52:44.801Z,6.80
2022-11-20T19:55:12.518Z,6.80
2022-11-20T19:57:40.309Z,6.80
2022-11-20T20:00:09.619Z,6.80
2022-11-20T20:02:38.694Z,6.80
2022-11-20T20:05:07.298Z,6.80
2022-11-20T20:07:35.143Z,6.80
2022-11-20T20:10:03.160Z,6.80
2022-11-20T20:12:30.874Z,6.80
2022-11-20T20:14:58.635Z,6.70
2022-11-20T20:17:26.604Z,6.70
2022-11-20T20:19:55.912Z,6.70
2022-11-20T20:22:23.645Z,6.70
2022-11-20T20:24:51.991Z,6.70
2022-11-20T20:27:19.899Z,6.70
2022-11-20T20:29:47.789Z,6.70
2022-11-20T20:32:15.580Z,6.70
2022-11-20T20:34:43.343Z,6.70
2022-11-20T20:37:12.455Z,6.70
2022-11-20T20:39:40.211Z,6.70
2022-11-20T20:42:08.010Z,6.60
2022-11-20T20:44:53.416Z,8.10
2022-11-20T20:47:21.199Z,6.70
2022-11-20T20:49:48.897Z,6.70
2022-11-20T20:52:17.975Z,6.70
2022-11-20T20:54:45.720Z,6.70
2022-11-20T20:57:13.721Z,6.70
2022-11-20T20:59:41.635Z,6.70
2022-11-20T21:02:11.191Z,6.70
2022-11-20T21:04:39.081Z,6.70
2022-11-20T21:07:07.013Z,6.70
2022-11-20T21:09:36.140Z,6.80
2022-11-20T21:12:04.656Z,6.80
2022-11-20T21:14:32.711Z,6.80
2022-11-20T21:17:00.508Z,6.80
2022-11-20T21:19:28.467Z,6.80
2022-11-20T21:22:03.265Z,6.80
2022-11-20T21:24:32.848Z,6.80
2022-11-20T21:27:03.399Z,6.80
2022-11-20T21:29:32.552Z,6.80
2022-11-20T21:32:00.292Z,6.80
2022-11-20T21:34:28.146Z,6.70
2022-11-20T21:36:56.016Z,6.70
2022-11-20T21:39:23.738Z,6.70
2022-11-20T21:41:51.461Z,6.70
2022-11-20T21:44:35.845Z,6.60
2022-11-20T21:47:03.633Z,6.60
2022-11-20T21:49:31.380Z,6.60
2022-11-20T21:51:59.167Z,6.60
2022-11-20T21:54:27.244Z,6.70
2022-11-20T21:56:55.110Z,6.70
2022-11-20T21:59:24.367Z,6.70
2022-11-20T22:01:52.264Z,6.70
2022-11-20T22:04:21.289Z,6.80
2022-11-20T22:06:49.401Z,6.70
2022-11-20T22:09:19.913Z,6.70
2022-11-20T22:11:47.652Z,6.60
2022-11-20T22:14:20.562Z,6.70
2022-11-20T22:16:50.422Z,6.60
2022-11-20T22:19:19.089Z,6.70
2022-11-20T22:21:47.145Z,6.70
2022-11-20T22:24:16.970Z,6.60
2022-11-20T22:26:44.765Z,6.60
2022-11-20T22:29:15.881Z,6.50
2022-11-20T22:31:43.982Z,6.50
2022-11-20T22:34:14.458Z,6.50
2022-11-20T22:36:42.729Z,6.50
2022-11-20T22:39:10.700Z,6.50
2022-11-20T22:41:38.462Z,6.50
2022-11-20T22:44:07.877Z,6.60
2022-11-20T22:46:37.280Z,6.60
2022-11-20T22:49:06.766Z,6.60
2022-11-20T22:51:37.891Z,6.60
2022-11-20T22:54:06.242Z,6.60
2022-11-20T22:56:35.026Z,6.60
2022-11-20T22:59:02.798Z,6.60
2022-11-20T23:01:32.174Z,6.60
2022-11-20T23:04:01.621Z,6.70
2022-11-20T23:06:30.478Z,6.70
2022-11-20T23:08:59.686Z,6.70
2022-11-20T23:11:29.314Z,6.70
2022-11-20T23:13:58.887Z,6.70
2022-11-20T23:16:28.231Z,6.70
2022-11-20T23:18:57.833Z,6.70
2022-11-20T23:21:26.055Z,6.70
2022-11-20T23:23:55.533Z,6.70
2022-11-20T23:26:26.334Z,6.80
2022-11-20T23:28:56.467Z,6.70
2022-11-20T23:31:25.342Z,6.80
2022-11-20T23:33:53.322Z,6.80
2022-11-20T23:36:21.270Z,6.80
2022-11-20T23:38:49.042Z,6.80
2022-11-20T23:41:17.027Z,6.80
2022-11-20T23:43:46.406Z,6.90
2022-11-20T23:46:16.809Z,6.90
2022-11-20T23:48:45.886Z,6.90
2022-11-20T23:51:14.301Z,6.90
2022-11-20T23:53:42.403Z,6.90
2022-11-20T23:56:10.445Z,6.90
2022-11-20T23:58:39.666Z,6.90
